Terminal Aerodrome Forecast
Issued by NWS Houston/Galveston, TX

Home | Current Version | Previous Version | Text Only | Print | Product List | Glossary On
Versions: 1 2 3 4 5 6 7 8 9 10 11 12 13 14 15 16 17 18 19 20 21 22 23 24 25 26 27 28 29 30 31 32 33 34 35 36 37 38 39 40 41 42
000
FTUS44 KHGX 220150 AAA
TAFGLS
TAF AMD
KGLS 220150Z 2202/2224 09007KT P6SM SCT008 SCT015 OVC070
      TEMPO 2202/2206 BKN008
     FM220700 11007KT P6SM BKN008 OVC012
     FM221200 12008KT P6SM SCT007 BKN015 OVC025
     FM221400 15011KT P6SM SCT015 BKN025 BKN040
     FM222100 19011KT P6SM SCT025 BKN250=

USA.gov is the U.S. government's official web portal to all federal, state and local government web resources and services.